createdAt,value
2022-12-17T00:01:22.213Z,7.20
2022-12-17T00:04:08.877Z,10.77
2022-12-17T00:06:56.429Z,7.60
2022-12-17T00:09:48.585Z,9.10
2022-12-17T00:12:36.360Z,9.07
2022-12-17T00:15:23.165Z,9.30
2022-12-17T00:18:09.672Z,8.13
2022-12-17T00:20:56.038Z,7.62
2022-12-17T00:23:42.942Z,8.40
2022-12-17T00:26:29.528Z,8.13
2022-12-17T00:29:26.523Z,9.50
2022-12-17T00:32:13.116Z,7.60
2022-12-17T00:34:59.191Z,7.47
2022-12-17T00:37:45.398Z,10.90
2022-12-17T00:40:31.906Z,10.13
2022-12-17T00:43:29.692Z,9.25
2022-12-17T00:46:16.344Z,6.15
2022-12-17T00:49:02.562Z,8.00
2022-12-17T00:51:49.045Z,6.55
2022-12-17T00:54:35.424Z,8.18
2022-12-17T00:57:21.666Z,8.15
2022-12-17T01:00:08.026Z,8.05
2022-12-17T01:02:54.566Z,9.95
2022-12-17T01:05:42.593Z,7.30
2022-12-17T01:08:30.218Z,9.18
2022-12-17T01:11:24.915Z,7.82
2022-12-17T01:14:12.114Z,6.50
2022-12-17T01:16:58.536Z,11.45
2022-12-17T01:19:44.794Z,6.20
2022-12-17T01:22:31.300Z,8.00
2022-12-17T01:25:17.584Z,9.70
2022-12-17T01:28:08.210Z,8.38
2022-12-17T01:30:56.913Z,10.02
2022-12-17T01:33:43.504Z,10.40
2022-12-17T01:36:29.883Z,7.68
2022-12-17T01:39:16.110Z,10.15
2022-12-17T01:42:02.567Z,8.15
2022-12-17T01:45:06.699Z,9.18
2022-12-17T01:48:07.151Z,10.65
2022-12-17T01:50:59.288Z,9.18
2022-12-17T01:53:50.817Z,6.60
2022-12-17T01:56:37.683Z,9.52
2022-12-17T01:59:25.398Z,6.40
2022-12-17T02:02:13.558Z,10.13
2022-12-17T02:05:00.113Z,8.57
2022-12-17T02:08:08.637Z,8.23
2022-12-17T02:11:18.932Z,7.32
2022-12-17T02:14:31.963Z,7.03
2022-12-17T02:17:23.307Z,9.95
2022-12-17T02:20:40.011Z,8.02
2022-12-17T02:24:01.794Z,8.02
2022-12-17T02:26:58.283Z,7.57
2022-12-17T02:29:47.486Z,9.80
2022-12-17T02:32:34.770Z,7.80
2022-12-17T02:35:23.895Z,8.95
2022-12-17T02:38:10.323Z,9.88
2022-12-17T02:41:14.617Z,11.68
2022-12-17T02:44:01.043Z,14.57
2022-12-17T02:46:47.481Z,10.02
2022-12-17T02:49:33.924Z,10.25
2022-12-17T02:52:20.444Z,10.32
2022-12-17T02:55:06.617Z,9.32
2022-12-17T02:57:54.072Z,8.40
2022-12-17T03:00:40.436Z,6.87
2022-12-17T03:03:27.012Z,8.40
2022-12-17T03:06:13.266Z,11.10
2022-12-17T03:08:59.531Z,9.15
2022-12-17T03:11:48.890Z,8.93
2022-12-17T03:14:35.690Z,10.48
2022-12-17T03:17:22.164Z,8.77
2022-12-17T03:20:08.615Z,10.18
2022-12-17T03:22:54.993Z,7.65
2022-12-17T03:25:41.592Z,13.07
2022-12-17T03:28:31.177Z,8.63
2022-12-17T03:31:18.941Z,11.93
2022-12-17T03:34:06.274Z,10.95
2022-12-17T03:36:52.873Z,10.23
2022-12-17T03:39:38.742Z,9.10
2022-12-17T03:42:25.039Z,10.25
2022-12-17T03:45:11.530Z,6.68
2022-12-17T03:47:57.815Z,8.40
2022-12-17T03:50:44.334Z,9.82
2022-12-17T03:53:30.655Z,9.75
2022-12-17T03:56:16.618Z,13.70
2022-12-17T03:59:03.075Z,8.88
2022-12-17T04:01:49.381Z,6.12
2022-12-17T04:04:35.735Z,15.10
2022-12-17T04:07:22.318Z,12.55
2022-12-17T04:10:08.868Z,11.07
2022-12-17T04:12:54.861Z,10.13
2022-12-17T04:15:41.525Z,12.13
2022-12-17T04:18:27.879Z,13.68
2022-12-17T04:21:14.271Z,12.18
2022-12-17T04:24:00.624Z,11.68
2022-12-17T04:26:46.983Z,10.50
2022-12-17T04:29:33.121Z,10.40
2022-12-17T04:32:19.433Z,12.98
2022-12-17T04:35:05.576Z,10.10
2022-12-17T04:37:51.902Z,10.48
2022-12-17T04:40:38.041Z,12.07
2022-12-17T04:43:29.364Z,11.10
2022-12-17T04:46:15.772Z,13.10
2022-12-17T04:49:02.387Z,9.40
2022-12-17T04:51:48.908Z,11.32
2022-12-17T04:54:35.402Z,12.90
2022-12-17T04:57:21.435Z,12.32
2022-12-17T05:00:07.922Z,12.55
2022-12-17T05:02:54.550Z,13.82
2022-12-17T05:05:41.137Z,9.70
2022-12-17T05:08:27.488Z,11.90
2022-12-17T05:11:13.937Z,10.43
2022-12-17T05:13:59.955Z,13.07
2022-12-17T05:16:46.499Z,11.05
2022-12-17T05:19:33.098Z,14.07
2022-12-17T05:22:19.262Z,10.52
2022-12-17T05:25:05.457Z,10.20
2022-12-17T05:27:51.635Z,10.32
2022-12-17T05:30:37.884Z,8.10
2022-12-17T05:33:24.577Z,12.45
2022-12-17T05:36:11.101Z,9.77
2022-12-17T05:38:57.536Z,11.68
2022-12-17T05:41:43.688Z,8.75
2022-12-17T05:44:30.278Z,12.98
2022-12-17T05:47:16.104Z,12.95
2022-12-17T05:50:02.608Z,13.65
2022-12-17T05:52:48.815Z,10.48
2022-12-17T05:55:35.704Z,13.30
2022-12-17T05:58:26.803Z,11.40
2022-12-17T06:01:17.600Z,10.90
2022-12-17T06:04:03.796Z,13.02
2022-12-17T06:06:50.673Z,13.95
2022-12-17T06:09:37.044Z,12.73
2022-12-17T06:12:23.184Z,12.43
2022-12-17T06:15:09.178Z,9.23
2022-12-17T06:18:03.124Z,11.77
2022-12-17T06:20:49.521Z,12.80
2022-12-17T06:23:36.390Z,11.38
2022-12-17T06:26:22.945Z,13.55
2022-12-17T06:29:09.232Z,12.00
2022-12-17T06:31:55.048Z,10.82
2022-12-17T06:34:41.417Z,9.02
2022-12-17T06:37:27.631Z,11.32
2022-12-17T06:40:13.695Z,11.93
2022-12-17T06:42:59.820Z,14.07
2022-12-17T06:45:45.639Z,7.72
2022-12-17T06:48:31.907Z,11.23
2022-12-17T06:51:18.380Z,14.07
2022-12-17T06:54:04.730Z,12.30
2022-12-17T06:56:51.370Z,10.18
2022-12-17T06:59:37.225Z,12.98
2022-12-17T07:02:23.604Z,14.75
2022-12-17T07:05:09.982Z,9.68
2022-12-17T07:07:56.545Z,11.40
2022-12-17T07:10:43.505Z,13.60
2022-12-17T07:13:29.838Z,12.63
2022-12-17T07:16:16.465Z,10.40
2022-12-17T07:19:03.025Z,12.93
2022-12-17T07:21:49.277Z,17.58
2022-12-17T07:24:55.017Z,12.40
2022-12-17T07:27:41.377Z,11.77
2022-12-17T07:30:28.233Z,12.27
2022-12-17T07:33:21.794Z,15.43
2022-12-17T07:36:07.883Z,15.88
2022-12-17T07:38:54.345Z,18.40
2022-12-17T07:41:40.551Z,19.02
2022-12-17T07:44:27.072Z,16.05
2022-12-17T07:47:13.692Z,16.20
2022-12-17T07:50:00.175Z,12.13
2022-12-17T07:52:46.083Z,15.88
2022-12-17T07:55:32.339Z,17.92
2022-12-17T07:58:24.464Z,13.38
2022-12-17T08:01:10.893Z,14.70
2022-12-17T08:03:57.162Z,12.18
2022-12-17T08:06:43.709Z,17.02
2022-12-17T08:09:30.316Z,17.35
2022-12-17T08:12:16.799Z,11.90
2022-12-17T08:15:03.061Z,17.52
2022-12-17T08:17:49.372Z,17.35
2022-12-17T08:20:36.007Z,12.45
2022-12-17T08:23:25.492Z,11.23
2022-12-17T08:26:11.831Z,13.35
2022-12-17T08:28:58.251Z,16.15
2022-12-17T08:31:44.755Z,15.25
2022-12-17T08:34:31.001Z,15.00
2022-12-17T08:37:17.182Z,17.83
2022-12-17T08:40:03.488Z,14.25
2022-12-17T08:42:49.755Z,13.65
2022-12-17T08:45:36.261Z,17.42
2022-12-17T08:48:27.088Z,16.00
2022-12-17T08:51:14.000Z,17.30
2022-12-17T08:54:00.575Z,11.60
2022-12-17T08:56:47.034Z,14.52
2022-12-17T08:59:33.388Z,11.12
2022-12-17T09:02:19.538Z,11.80
2022-12-17T09:05:06.017Z,15.23
2022-12-17T09:07:52.556Z,11.18
2022-12-17T09:10:38.936Z,12.27
2022-12-17T09:13:25.477Z,12.80
2022-12-17T09:19:55.712Z,13.23
2022-12-17T09:22:41.801Z,14.82
2022-12-17T09:25:28.266Z,14.77
2022-12-17T09:28:14.736Z,15.80
2022-12-17T09:31:01.188Z,16.27
2022-12-17T09:33:47.456Z,15.18
2022-12-17T09:36:33.688Z,11.07
2022-12-17T09:39:20.127Z,12.40
2022-12-17T09:42:18.223Z,20.83
2022-12-17T09:45:18.920Z,11.85
2022-12-17T09:48:39.494Z,12.55
2022-12-17T09:51:31.215Z,13.30
2022-12-17T09:54:18.067Z,9.68
2022-12-17T09:57:04.533Z,12.00
2022-12-17T09:59:55.413Z,9.02
2022-12-17T10:02:48.907Z,9.73
2022-12-17T10:05:48.342Z,13.20
2022-12-17T10:08:39.385Z,10.13
2022-12-17T10:11:38.708Z,18.62
2022-12-17T10:14:40.450Z,13.48
2022-12-17T10:17:35.192Z,14.02
2022-12-17T10:20:22.122Z,12.55
2022-12-17T10:23:09.923Z,18.87
2022-12-17T10:25:56.201Z,11.98
2022-12-17T10:28:44.310Z,12.82
2022-12-17T10:31:42.099Z,9.02
2022-12-17T10:34:39.606Z,11.15
2022-12-17T10:37:37.892Z,11.65
2022-12-17T10:41:09.659Z,10.68
2022-12-17T10:43:58.794Z,13.07
2022-12-17T10:46:51.999Z,12.23
2022-12-17T10:49:41.872Z,15.18
2022-12-17T10:52:58.208Z,11.27
2022-12-17T10:55:49.658Z,9.30
2022-12-17T10:58:42.901Z,14.02
2022-12-17T11:01:40.113Z,10.57
2022-12-17T11:04:44.726Z,12.75
2022-12-17T11:07:54.361Z,10.68
2022-12-17T11:10:44.113Z,11.18
2022-12-17T11:13:53.384Z,12.37
2022-12-17T11:16:54.420Z,11.30
2022-12-17T11:19:58.184Z,11.35
2022-12-17T11:22:50.987Z,12.15
2022-12-17T11:26:07.715Z,11.90
2022-12-17T11:28:55.718Z,13.05
2022-12-17T11:31:54.098Z,10.60
2022-12-17T11:34:55.377Z,15.23
2022-12-17T11:37:58.140Z,11.35
2022-12-17T11:40:58.615Z,8.55
2022-12-17T11:43:48.672Z,11.88
2022-12-17T11:46:49.453Z,14.02
2022-12-17T11:49:45.065Z,12.68
2022-12-17T11:53:00.397Z,9.00
2022-12-17T11:55:52.618Z,17.05
2022-12-17T11:58:58.898Z,16.58
2022-12-17T12:01:54.235Z,13.05
2022-12-17T12:04:49.589Z,9.68
2022-12-17T12:08:02.635Z,12.85
2022-12-17T12:11:03.205Z,13.68
2022-12-17T12:13:58.245Z,13.07
2022-12-17T12:17:16.618Z,9.45
2022-12-17T12:20:33.281Z,9.77
2022-12-17T12:23:31.255Z,14.40
2022-12-17T12:26:20.695Z,13.55
2022-12-17T12:29:26.862Z,14.60
2022-12-17T12:32:39.979Z,12.45
2022-12-17T12:35:35.097Z,13.75
2022-12-17T12:38:22.365Z,14.15
2022-12-17T12:41:19.345Z,14.43
2022-12-17T12:44:29.077Z,12.20
2022-12-17T12:47:27.155Z,13.95
2022-12-17T12:50:34.610Z,11.40
2022-12-17T12:53:21.125Z,13.40
2022-12-17T12:56:07.498Z,12.88
2022-12-17T12:58:54.230Z,14.13
2022-12-17T13:01:52.025Z,12.25
2022-12-17T13:04:55.551Z,14.40
2022-12-17T13:07:28.903Z,13.57
2022-12-17T13:09:59.300Z,13.25
2022-12-17T13:12:34.301Z,14.35
2022-12-17T13:15:07.855Z,13.05
2022-12-17T13:17:56.404Z,15.90
2022-12-17T13:20:31.712Z,15.30
2022-12-17T13:23:27.395Z,18.25
2022-12-17T13:26:22.049Z,13.70
2022-12-17T13:28:51.529Z,13.35
2022-12-17T13:31:26.232Z,16.25
2022-12-17T13:34:06.238Z,10.75
2022-12-17T13:37:08.344Z,11.52
2022-12-17T13:39:47.431Z,11.85
2022-12-17T13:42:41.593Z,9.57
2022-12-17T13:45:17.386Z,10.75
2022-12-17T13:47:45.219Z,16.15
2022-12-17T13:50:36.688Z,14.38
2022-12-17T13:53:13.179Z,13.98
2022-12-17T13:55:41.326Z,16.12
2022-12-17T13:58:31.612Z,14.85
2022-12-17T14:01:27.441Z,11.15
2022-12-17T14:04:06.368Z,14.77
2022-12-17T14:06:38.823Z,15.25
2022-12-17T14:09:07.485Z,12.35
2022-12-17T14:11:57.110Z,9.85
2022-12-17T14:14:37.381Z,10.80
2022-12-17T14:17:05.592Z,11.73
2022-12-17T14:19:34.761Z,15.60
2022-12-17T14:22:02.620Z,16.02
2022-12-17T14:24:30.716Z,17.48
2022-12-17T14:27:00.852Z,15.10
2022-12-17T14:29:31.692Z,15.10
2022-12-17T14:32:21.071Z,13.75
2022-12-17T14:34:48.871Z,13.55
2022-12-17T14:37:20.918Z,12.68
2022-12-17T14:39:49.698Z,14.55
2022-12-17T14:42:30.599Z,14.82
2022-12-17T14:44:58.297Z,13.90
2022-12-17T14:47:29.293Z,13.80
2022-12-17T14:50:00.016Z,12.07
2022-12-17T14:52:42.639Z,10.05
2022-12-17T14:55:32.558Z,11.30
2022-12-17T14:58:15.311Z,11.20
2022-12-17T15:00:47.191Z,11.52
2022-12-17T15:03:38.650Z,11.07
2022-12-17T15:06:08.573Z,11.57
2022-12-17T15:08:40.943Z,12.40
2022-12-17T15:11:10.978Z,14.02
2022-12-17T15:13:38.681Z,12.50
2022-12-17T15:16:06.951Z,16.08
2022-12-17T15:18:35.079Z,17.45
2022-12-17T15:21:03.312Z,23.00
2022-12-17T15:23:32.420Z,17.42
2022-12-17T15:26:00.429Z,15.90
2022-12-17T15:28:28.157Z,13.70
2022-12-17T15:30:55.972Z,13.98
2022-12-17T15:33:23.684Z,14.18
2022-12-17T15:35:51.440Z,17.05
2022-12-17T15:38:19.130Z,21.37
2022-12-17T15:40:47.063Z,21.90
2022-12-17T15:43:15.785Z,17.77
2022-12-17T15:45:50.350Z,14.32
2022-12-17T15:48:24.359Z,18.73
2022-12-17T15:50:52.134Z,14.60
2022-12-17T15:53:19.905Z,16.30
2022-12-17T15:55:47.535Z,18.25
2022-12-17T15:58:15.426Z,16.40
2022-12-17T16:00:43.190Z,14.90
2022-12-17T16:03:11.098Z,11.68
2022-12-17T16:05:38.902Z,13.95
2022-12-17T16:08:06.735Z,18.23
2022-12-17T16:10:34.420Z,18.85
2022-12-17T16:13:02.179Z,23.33
2022-12-17T16:15:30.112Z,18.00
2022-12-17T16:17:57.794Z,11.95
2022-12-17T16:20:25.836Z,14.65
2022-12-17T16:22:53.535Z,14.32
2022-12-17T16:25:21.301Z,17.75
2022-12-17T16:27:48.973Z,12.65
2022-12-17T16:30:16.835Z,16.17
2022-12-17T16:32:44.532Z,15.98
2022-12-17T16:35:12.320Z,15.48
2022-12-17T16:37:39.984Z,15.43
2022-12-17T16:40:08.243Z,16.02
2022-12-17T16:42:35.895Z,19.87
2022-12-17T16:45:03.549Z,17.35
2022-12-17T16:47:31.263Z,13.05
2022-12-17T16:49:58.980Z,13.73
2022-12-17T16:52:26.708Z,14.13
2022-12-17T16:54:54.448Z,15.90
2022-12-17T16:57:22.204Z,15.32
2022-12-17T16:59:49.955Z,17.48
2022-12-17T17:02:18.018Z,15.80
2022-12-17T17:04:46.077Z,12.48
2022-12-17T17:07:13.768Z,20.27
2022-12-17T17:09:41.479Z,14.90
2022-12-17T17:12:10.139Z,18.08
2022-12-17T17:14:37.889Z,15.50
2022-12-17T17:17:05.648Z,17.27
2022-12-17T17:19:33.479Z,17.40
2022-12-17T17:22:01.203Z,19.85
2022-12-17T17:24:28.888Z,20.20
2022-12-17T17:26:56.860Z,22.87
2022-12-17T17:29:24.838Z,20.23
2022-12-17T17:32:09.854Z,19.62
2022-12-17T17:34:39.906Z,21.75
2022-12-17T17:37:07.741Z,23.10
2022-12-17T17:39:35.846Z,22.50
2022-12-17T17:42:03.787Z,17.98
2022-12-17T17:44:31.478Z,18.15
2022-12-17T17:46:59.389Z,28.27
2022-12-17T17:49:27.246Z,23.90
2022-12-17T17:52:11.330Z,25.12
2022-12-17T17:54:40.608Z,17.52
2022-12-17T17:57:08.953Z,18.20
2022-12-17T17:59:36.726Z,22.80
2022-12-17T18:02:04.747Z,17.12
2022-12-17T18:04:33.389Z,20.15
2022-12-17T18:07:25.334Z,18.90
2022-12-17T18:09:48.904Z,24.58
2022-12-17T18:12:35.090Z,22.45
2022-12-17T18:15:14.265Z,22.30
2022-12-17T18:17:43.272Z,26.12
2022-12-17T18:20:11.764Z,24.92
2022-12-17T18:22:39.431Z,19.70
2022-12-17T18:25:07.268Z,16.98
2022-12-17T18:27:34.965Z,30.70
2022-12-17T18:30:02.637Z,24.58
2022-12-17T18:32:30.313Z,23.33
2022-12-17T18:34:58.072Z,21.48
2022-12-17T18:37:25.835Z,19.62
2022-12-17T18:39:53.447Z,16.12
2022-12-17T18:42:39.835Z,20.80
2022-12-17T18:45:08.228Z,18.50
2022-12-17T18:47:35.926Z,26.33
2022-12-17T18:50:03.646Z,25.55
2022-12-17T18:52:31.381Z,25.80
2022-12-17T18:54:59.065Z,29.67
2022-12-17T18:57:26.859Z,26.67
2022-12-17T18:59:54.523Z,26.70
2022-12-17T19:02:22.364Z,18.77
2022-12-17T19:04:50.157Z,22.25
2022-12-17T19:07:17.832Z,27.17
2022-12-17T19:09:45.618Z,23.38
2022-12-17T19:12:13.288Z,18.95
2022-12-17T19:14:41.118Z,29.35
2022-12-17T19:17:08.757Z,20.27
2022-12-17T19:19:36.468Z,23.38
2022-12-17T19:22:04.578Z,30.08
2022-12-17T19:24:32.306Z,24.33
2022-12-17T19:27:00.034Z,26.33
2022-12-17T19:29:27.918Z,20.67
2022-12-17T19:31:55.641Z,29.37
2022-12-17T19:34:23.343Z,18.12
2022-12-17T19:36:51.361Z,23.05
2022-12-17T19:39:20.813Z,23.48
2022-12-17T19:41:48.502Z,21.48
2022-12-17T19:44:18.494Z,23.85
2022-12-17T19:46:46.291Z,26.52
2022-12-17T19:49:16.603Z,21.30
2022-12-17T19:51:45.219Z,27.83
2022-12-17T19:54:16.004Z,23.80
2022-12-17T19:56:45.363Z,24.45
2022-12-17T19:59:14.230Z,22.77
2022-12-17T20:01:45.358Z,22.08
2022-12-17T20:04:14.704Z,25.23
2022-12-17T20:06:42.813Z,26.37
2022-12-17T20:09:10.585Z,26.65
2022-12-17T20:11:38.683Z,25.65
2022-12-17T20:14:16.950Z,22.70
2022-12-17T20:16:59.146Z,32.33
2022-12-17T20:19:32.168Z,31.33
2022-12-17T20:22:01.709Z,25.02
2022-12-17T20:24:31.892Z,22.17
2022-12-17T20:27:00.466Z,23.75
2022-12-17T20:29:28.456Z,32.20
2022-12-17T20:31:56.849Z,23.67
2022-12-17T20:34:26.223Z,27.00
2022-12-17T20:36:54.855Z,21.33
2022-12-17T20:39:27.162Z,21.45
2022-12-17T20:41:56.057Z,22.75
2022-12-17T20:44:23.877Z,21.02
2022-12-17T20:46:51.575Z,24.85
2022-12-17T20:49:19.241Z,20.55
2022-12-17T20:51:47.075Z,24.50
2022-12-17T20:54:14.874Z,24.33
2022-12-17T20:56:42.588Z,25.60
2022-12-17T20:59:16.357Z,32.20
2022-12-17T21:01:44.754Z,31.70
2022-12-17T21:04:14.670Z,25.62
2022-12-17T21:06:47.257Z,24.60
2022-12-17T21:09:16.662Z,22.42
2022-12-17T21:11:44.395Z,28.12
2022-12-17T21:14:15.403Z,22.37
2022-12-17T21:16:44.322Z,22.75
2022-12-17T21:19:18.175Z,22.20
2022-12-17T21:21:46.147Z,21.20
2022-12-17T21:24:13.939Z,32.17
2022-12-17T21:26:43.593Z,30.23
2022-12-17T21:29:12.245Z,23.58
2022-12-17T21:31:43.708Z,22.48
2022-12-17T21:34:15.141Z,33.63
2022-12-17T21:36:43.770Z,27.80
2022-12-17T21:39:14.333Z,23.70
2022-12-17T21:41:44.697Z,22.20
2022-12-17T21:44:14.627Z,27.52
2022-12-17T21:46:46.297Z,27.87
2022-12-17T21:49:17.980Z,24.25
2022-12-17T21:51:45.812Z,34.53
2022-12-17T21:54:19.369Z,28.38
2022-12-17T21:56:47.904Z,26.62
2022-12-17T21:59:15.623Z,31.35
2022-12-17T22:01:43.463Z,34.05
2022-12-17T22:04:11.425Z,24.00
2022-12-17T22:06:40.236Z,22.70
2022-12-17T22:09:14.739Z,28.35
2022-12-17T22:11:47.654Z,26.48
2022-12-17T22:14:20.820Z,33.80
2022-12-17T22:16:50.284Z,33.88
2022-12-17T22:19:22.471Z,30.50
2022-12-17T22:21:55.799Z,36.03
2022-12-17T22:24:26.193Z,28.05
2022-12-17T22:27:01.238Z,26.02
2022-12-17T22:30:04.695Z,30.25
2022-12-17T22:32:51.163Z,36.22
2022-12-17T22:36:52.124Z,28.35
2022-12-17T22:41:07.759Z,29.87
2022-12-17T22:44:29.566Z,29.42
2022-12-17T22:44:46.141Z,25.37
2022-12-17T22:46:32.699Z,32.22
2022-12-17T22:49:00.650Z,35.72
2022-12-17T22:51:31.474Z,34.88
2022-12-17T22:54:09.277Z,25.83
2022-12-17T22:57:31.446Z,35.30
2022-12-17T22:59:26.912Z,34.63
2022-12-17T23:01:54.772Z,29.08
2022-12-17T23:04:22.833Z,35.42
2022-12-17T23:06:50.667Z,33.50
2022-12-17T23:09:20.316Z,30.62
2022-12-17T23:11:49.446Z,32.40
2022-12-17T23:14:18.250Z,36.28
2022-12-17T23:16:47.881Z,31.27
2022-12-17T23:19:15.716Z,28.02
2022-12-17T23:21:43.489Z,36.80
2022-12-17T23:24:11.151Z,21.40
2022-12-17T23:26:39.174Z,29.98
2022-12-17T23:29:13.580Z,27.02
2022-12-17T23:31:43.907Z,28.65
2022-12-17T23:34:11.726Z,31.10
2022-12-17T23:36:39.460Z,31.75
2022-12-17T23:39:07.672Z,26.48
2022-12-17T23:41:35.511Z,30.70
2022-12-17T23:44:03.179Z,33.10
2022-12-17T23:46:31.838Z,27.90
2022-12-17T23:48:59.806Z,37.78
2022-12-17T23:51:27.677Z,31.40
2022-12-17T23:53:55.411Z,24.85
2022-12-17T23:56:25.668Z,26.12
2022-12-17T23:59:02.228Z,30.50
